createdAt,value
2023-05-18T00:02:29.067Z,91528.84
2023-05-18T00:05:01.724Z,91519.16
2023-05-18T00:07:34.338Z,91528.66
2023-05-18T00:10:08.320Z,91522.84
2023-05-18T00:12:40.957Z,91522.09
2023-05-18T00:15:14.002Z,91526.06
2023-05-18T00:17:46.373Z,91521.44
2023-05-18T00:20:21.419Z,91523.75
2023-05-18T00:22:53.807Z,91527.59
2023-05-18T00:25:26.213Z,91533.78
2023-05-18T00:27:58.532Z,91529.59
2023-05-18T00:30:34.352Z,91526.53
2023-05-18T00:33:06.835Z,91527.75
2023-05-18T00:35:41.388Z,91528.41
2023-05-18T00:38:15.011Z,91529.75
2023-05-18T00:40:48.588Z,91530.03
2023-05-18T00:43:21.102Z,91531.28
2023-05-18T00:45:54.168Z,91528.50
2023-05-18T00:48:26.592Z,91527.28
2023-05-18T00:50:59.782Z,91525.91
2023-05-18T00:53:32.715Z,91520.81
2023-05-18T00:56:05.809Z,91528.34
2023-05-18T00:58:38.670Z,91520.16
2023-05-18T01:01:11.739Z,91521.53
2023-05-18T01:03:44.168Z,91517.84
2023-05-18T01:06:17.751Z,91519.56
2023-05-18T01:08:50.047Z,91519.25
2023-05-18T01:11:37.558Z,91523.53
2023-05-18T01:14:15.993Z,91519.09
2023-05-18T01:16:55.142Z,91519.28
2023-05-18T01:20:06.485Z,91519.84
2023-05-18T01:22:50.549Z,91514.78
2023-05-18T01:25:33.337Z,91514.31
2023-05-18T01:28:13.624Z,91518.47
2023-05-18T01:30:46.213Z,91512.34
2023-05-18T01:33:18.563Z,91522.16
2023-05-18T01:35:51.279Z,91518.59
2023-05-18T01:38:27.177Z,91519.03
2023-05-18T01:41:06.014Z,91518.28
2023-05-18T01:43:48.362Z,91521.81
2023-05-18T01:46:34.591Z,91520.09
2023-05-18T01:49:13.885Z,91532.06
2023-05-18T01:51:47.915Z,91521.47
2023-05-18T01:54:24.403Z,91521.56
2023-05-18T01:56:58.348Z,91527.81
2023-05-18T01:59:33.137Z,91525.53
2023-05-18T02:02:05.757Z,91527.25
2023-05-18T02:04:38.255Z,91524.63
2023-05-18T02:07:10.601Z,91515.72
2023-05-18T02:09:43.616Z,91523.88
2023-05-18T02:12:15.986Z,91520.31
2023-05-18T02:14:49.090Z,91524.59
2023-05-18T02:17:25.388Z,91527.06
2023-05-18T02:19:57.750Z,91529.13
2023-05-18T02:22:30.392Z,91531.88
2023-05-18T02:25:03.469Z,91526.03
2023-05-18T02:27:36.152Z,91527.88
2023-05-18T02:30:11.645Z,91532.47
2023-05-18T02:32:46.246Z,91535.84
2023-05-18T02:35:20.011Z,91528.91
2023-05-18T02:37:53.234Z,91532.13
2023-05-18T02:40:25.598Z,91536.91
2023-05-18T02:42:57.943Z,91533.34
2023-05-18T02:45:31.726Z,91530.44
2023-05-18T02:48:05.510Z,91536.28
2023-05-18T02:50:37.922Z,91538.88
2023-05-18T02:53:10.583Z,91541.50
2023-05-18T02:55:43.188Z,91535.19
2023-05-18T02:58:22.313Z,91541.50
2023-05-18T03:01:14.117Z,91552.16
2023-05-18T03:03:52.985Z,91554.91
2023-05-18T03:06:26.092Z,91565.03
2023-05-18T03:08:59.798Z,91564.25
2023-05-18T03:11:39.348Z,91563.69
2023-05-18T03:14:11.749Z,91572.56
2023-05-18T03:16:44.837Z,91578.13
2023-05-18T03:19:20.515Z,91576.81
2023-05-18T03:21:52.982Z,91577.41
2023-05-18T03:24:25.875Z,91582.47
2023-05-18T03:27:00.256Z,91584.31
2023-05-18T03:29:33.573Z,91580.19
2023-05-18T03:32:09.008Z,91571.59
2023-05-18T03:34:44.042Z,91585.56
2023-05-18T03:37:16.593Z,91594.94
2023-05-18T03:39:49.514Z,91585.25
2023-05-18T03:42:23.371Z,91589.25
2023-05-18T03:44:55.876Z,91591.88
2023-05-18T03:47:29.205Z,91585.28
2023-05-18T03:50:02.623Z,91594.19
2023-05-18T03:52:35.589Z,91581.44
2023-05-18T03:55:08.584Z,91600.94
2023-05-18T03:57:40.915Z,91596.94
2023-05-18T04:00:15.101Z,91597.56
2023-05-18T04:02:51.403Z,91599.25
2023-05-18T04:05:27.869Z,91602.00
2023-05-18T04:08:00.278Z,91608.91
2023-05-18T04:10:32.783Z,91601.72
2023-05-18T04:13:05.277Z,91610.41
2023-05-18T04:15:37.810Z,91609.06
2023-05-18T04:18:10.971Z,91613.38
2023-05-18T04:20:45.453Z,91609.84
2023-05-18T04:23:17.796Z,91615.66
2023-05-18T04:25:50.884Z,91610.91
2023-05-18T04:28:23.384Z,91618.75
2023-05-18T04:30:55.738Z,91616.28
2023-05-18T04:33:29.299Z,91620.41
2023-05-18T04:36:04.216Z,91623.97
2023-05-18T04:38:36.663Z,91619.03
2023-05-18T04:41:08.993Z,91619.34
2023-05-18T04:43:41.956Z,91621.81
2023-05-18T04:46:16.170Z,91627.03
2023-05-18T04:48:50.666Z,91627.66
2023-05-18T04:51:23.228Z,91639.13
2023-05-18T04:53:55.623Z,91635.28
2023-05-18T04:56:28.910Z,91638.22
2023-05-18T04:59:01.964Z,91621.19
2023-05-18T05:01:35.082Z,91639.13
2023-05-18T05:04:08.200Z,91647.13
2023-05-18T05:06:41.204Z,91648.34
2023-05-18T05:09:14.196Z,91653.75
2023-05-18T05:11:46.773Z,91653.09
2023-05-18T05:14:19.148Z,91654.63
2023-05-18T05:16:51.474Z,91653.41
2023-05-18T05:19:24.720Z,91656.03
2023-05-18T05:21:57.256Z,91659.56
2023-05-18T05:24:30.035Z,91662.63
2023-05-18T05:27:02.447Z,91663.69
2023-05-18T05:29:35.136Z,91673.19
2023-05-18T05:32:08.064Z,91668.59
2023-05-18T05:34:43.207Z,91680.72
2023-05-18T05:37:16.002Z,91669.69
2023-05-18T05:39:48.687Z,91676.56
2023-05-18T05:42:22.964Z,91680.56
2023-05-18T05:44:55.432Z,91673.16
2023-05-18T05:47:28.417Z,91687.63
2023-05-18T05:50:01.676Z,91684.84
2023-05-18T05:52:34.285Z,91683.19
2023-05-18T05:55:07.787Z,91684.56
2023-05-18T05:57:42.162Z,91680.28
2023-05-18T06:00:15.332Z,91681.81
2023-05-18T06:02:53.611Z,91682.91
2023-05-18T06:05:33.750Z,91680.88
2023-05-18T06:08:07.047Z,91685.06
2023-05-18T06:10:40.571Z,91676.75
2023-05-18T06:13:13.788Z,91684.41
2023-05-18T06:15:55.604Z,91684.41
2023-05-18T06:18:29.353Z,91690.06
2023-05-18T06:21:06.990Z,91694.56
2023-05-18T06:23:41.773Z,91690.25
2023-05-18T06:26:34.745Z,91697.31
2023-05-18T06:29:25.781Z,91695.31
2023-05-18T06:32:20.184Z,91701.31
2023-05-18T06:34:58.800Z,91704.84
2023-05-18T06:37:31.850Z,91710.53
2023-05-18T06:40:05.498Z,91707.00
2023-05-18T06:42:37.881Z,91707.13
2023-05-18T06:45:36.141Z,91711.63
2023-05-18T06:48:27.748Z,91716.19
2023-05-18T06:51:00.382Z,91710.69
2023-05-18T06:53:33.542Z,91722.66
2023-05-18T06:56:06.156Z,91720.19
2023-05-18T06:58:38.709Z,91730.47
2023-05-18T07:01:11.441Z,91729.56
2023-05-18T07:03:44.129Z,91733.88
2023-05-18T07:06:16.505Z,91731.41
2023-05-18T07:08:49.473Z,91733.09
2023-05-18T07:11:22.309Z,91730.19
2023-05-18T07:13:54.652Z,91739.25
2023-05-18T07:16:27.212Z,91738.78
2023-05-18T07:18:59.615Z,91750.31
2023-05-18T07:21:32.629Z,91746.16
2023-05-18T07:24:06.301Z,91752.16
2023-05-18T07:26:38.650Z,91741.25
2023-05-18T07:29:11.057Z,91752.75
2023-05-18T07:31:43.543Z,91757.81
2023-05-18T07:34:16.854Z,91765.19
2023-05-18T07:36:49.330Z,91763.81
2023-05-18T07:40:04.390Z,91769.59
2023-05-18T07:42:40.011Z,91767.00
2023-05-18T07:45:13.152Z,91769.94
2023-05-18T07:47:45.658Z,91779.59
2023-05-18T07:50:18.086Z,91783.13
2023-05-18T07:52:50.477Z,91780.81
2023-05-18T07:55:23.498Z,91786.03
2023-05-18T07:57:55.855Z,91789.88
2023-05-18T08:00:28.437Z,91793.25
2023-05-18T08:03:01.089Z,91790.81
2023-05-18T08:05:33.765Z,91802.63
2023-05-18T08:08:07.469Z,91810.44
2023-05-18T08:10:40.766Z,91808.63
2023-05-18T08:13:13.095Z,91813.41
2023-05-18T08:15:50.923Z,91807.69
2023-05-18T08:18:28.596Z,91815.78
2023-05-18T08:21:03.418Z,91827.38
2023-05-18T08:23:36.031Z,91823.88
2023-05-18T08:26:10.065Z,91826.38
2023-05-18T08:28:44.543Z,91829.06
2023-05-18T08:31:16.961Z,91831.91
2023-05-18T08:33:49.500Z,91829.56
2023-05-18T08:36:21.806Z,91833.03
2023-05-18T08:38:54.508Z,91843.03
2023-05-18T08:41:30.461Z,91843.19
2023-05-18T08:44:06.229Z,91851.34
2023-05-18T08:46:41.964Z,91862.69
2023-05-18T08:49:18.064Z,91861.72
2023-05-18T08:51:55.381Z,91869.31
2023-05-18T08:54:30.130Z,91870.84
2023-05-18T08:57:07.627Z,91881.00
2023-05-18T08:59:41.836Z,91886.63
2023-05-18T09:02:14.482Z,91889.84
2023-05-18T09:04:48.169Z,91894.91
2023-05-18T09:07:21.620Z,91891.09
2023-05-18T09:09:56.064Z,91900.56
2023-05-18T09:12:30.704Z,91907.81
2023-05-18T09:15:03.520Z,91896.56
2023-05-18T09:17:36.998Z,91898.56
2023-05-18T09:20:10.100Z,91905.91
2023-05-18T09:22:42.518Z,91903.78
2023-05-18T09:25:17.517Z,91911.84
2023-05-18T09:27:52.320Z,91905.44
2023-05-18T09:30:25.263Z,91911.03
2023-05-18T09:32:57.734Z,91915.91
2023-05-18T09:35:31.973Z,91918.34
2023-05-18T09:38:04.594Z,91914.75
2023-05-18T09:40:36.937Z,91914.19
2023-05-18T09:43:10.051Z,91924.66
2023-05-18T09:45:43.601Z,91925.53
2023-05-18T09:48:16.667Z,91918.81
2023-05-18T09:50:49.674Z,91918.31
2023-05-18T09:53:22.033Z,91914.03
2023-05-18T09:55:54.401Z,91917.25
2023-05-18T09:58:31.656Z,91919.25
2023-05-18T10:01:04.358Z,91919.81
2023-05-18T10:03:38.016Z,91917.88
2023-05-18T10:06:12.579Z,91932.94
2023-05-18T10:08:45.667Z,91932.53
2023-05-18T10:11:19.192Z,91935.44
2023-05-18T10:13:55.586Z,91942.19
2023-05-18T10:16:28.689Z,91943.97
2023-05-18T10:19:02.325Z,91940.56
2023-05-18T10:21:37.648Z,91936.13
2023-05-18T10:24:13.794Z,91940.00
2023-05-18T10:26:50.125Z,91945.25
2023-05-18T10:29:24.319Z,91951.41
2023-05-18T10:32:04.452Z,91942.69
2023-05-18T10:34:40.306Z,91954.84
2023-05-18T10:37:15.942Z,91954.06
2023-05-18T10:39:50.412Z,91948.97
2023-05-18T10:42:25.145Z,91955.69
2023-05-18T10:45:01.195Z,91952.91
2023-05-18T10:47:38.700Z,91957.56
2023-05-18T10:50:11.259Z,91953.19
2023-05-18T10:52:45.067Z,91951.97
2023-05-18T10:55:18.313Z,91959.66
2023-05-18T10:57:55.126Z,91957.59
2023-05-18T11:00:29.766Z,91953.75
2023-05-18T11:03:03.750Z,91953.13
2023-05-18T11:05:36.147Z,91954.50
2023-05-18T11:08:09.318Z,91959.88
2023-05-18T11:10:43.391Z,91964.88
2023-05-18T11:13:15.633Z,91957.84
2023-05-18T11:16:05.713Z,91947.06
2023-05-18T11:18:41.566Z,91952.03
2023-05-18T11:21:21.552Z,91954.97
2023-05-18T11:24:19.627Z,91957.41
2023-05-18T11:26:53.441Z,91955.88
2023-05-18T11:29:31.489Z,91956.53
2023-05-18T11:32:29.348Z,91970.72
2023-05-18T11:35:08.032Z,91969.19
2023-05-18T11:37:49.975Z,91967.38
2023-05-18T11:40:45.100Z,91968.63
2023-05-18T11:43:21.623Z,91969.13
2023-05-18T11:45:56.683Z,91977.78
2023-05-18T11:48:33.011Z,91972.28
2023-05-18T11:51:08.666Z,91967.34
2023-05-18T11:53:41.081Z,91958.81
2023-05-18T11:56:13.387Z,91965.94
2023-05-18T11:58:48.631Z,91970.16
2023-05-18T12:01:22.992Z,91971.81
2023-05-18T12:03:56.068Z,91968.28
2023-05-18T12:06:28.564Z,91976.09
2023-05-18T12:09:03.128Z,91974.06
2023-05-18T12:11:36.850Z,91987.06
2023-05-18T12:14:09.390Z,91986.81
2023-05-18T12:16:44.143Z,91983.59
2023-05-18T12:19:18.944Z,91988.06
2023-05-18T12:21:51.178Z,91990.59
2023-05-18T12:24:23.415Z,91986.00
2023-05-18T12:26:55.706Z,91980.47
2023-05-18T12:29:28.055Z,92004.72
2023-05-18T12:32:05.492Z,91992.56
2023-05-18T12:34:39.227Z,91985.19
2023-05-18T12:37:11.551Z,91991.38
2023-05-18T12:39:43.848Z,91990.09
2023-05-18T12:42:16.122Z,91986.84
2023-05-18T12:44:50.167Z,91996.03
2023-05-18T12:47:22.444Z,91987.25
2023-05-18T12:49:55.446Z,91992.41
2023-05-18T12:52:28.107Z,91997.63
2023-05-18T12:55:00.526Z,92000.94
2023-05-18T12:57:41.144Z,92005.34
2023-05-18T13:00:14.432Z,92002.13
2023-05-18T13:02:46.772Z,92011.69
2023-05-18T13:05:24.110Z,92003.41
2023-05-18T13:07:56.511Z,92010.31
2023-05-18T13:10:30.764Z,92000.34
2023-05-18T13:13:03.638Z,92012.94
2023-05-18T13:15:37.085Z,92008.44
2023-05-18T13:18:10.743Z,92006.44
2023-05-18T13:20:47.711Z,92016.53
2023-05-18T13:23:21.857Z,92008.66
2023-05-18T13:25:56.708Z,92010.31
2023-05-18T13:28:30.578Z,92005.19
2023-05-18T13:31:02.854Z,92007.34
2023-05-18T13:33:35.133Z,92010.72
2023-05-18T13:36:08.826Z,92010.94
2023-05-18T13:38:41.896Z,92020.00
2023-05-18T13:41:14.437Z,92016.00
2023-05-18T13:43:46.689Z,92021.09
2023-05-18T13:46:19.310Z,92017.91
2023-05-18T13:48:51.545Z,92020.34
2023-05-18T13:51:24.431Z,92016.41
2023-05-18T13:53:57.039Z,92025.00
2023-05-18T13:56:29.327Z,92021.03
2023-05-18T13:59:01.583Z,92015.94
2023-05-18T14:01:33.869Z,92020.09
2023-05-18T14:04:06.188Z,92018.41
2023-05-18T14:06:40.809Z,92019.03
2023-05-18T14:09:13.263Z,92022.16
2023-05-18T14:11:45.560Z,92011.50
2023-05-18T14:14:17.797Z,92012.03
2023-05-18T14:16:50.889Z,92006.44
2023-05-18T14:19:23.290Z,92009.34
2023-05-18T14:21:56.296Z,92013.16
2023-05-18T14:24:28.553Z,92018.03
2023-05-18T14:27:01.095Z,92004.59
2023-05-18T14:29:35.259Z,92004.81
2023-05-18T14:32:08.790Z,92008.09
2023-05-18T14:34:41.039Z,92008.69
2023-05-18T14:37:13.995Z,92004.03
2023-05-18T14:39:46.368Z,92003.13
2023-05-18T14:42:18.579Z,92003.75
2023-05-18T14:44:50.786Z,92007.38
2023-05-18T14:47:23.003Z,92014.84
2023-05-18T14:49:55.317Z,92012.91
2023-05-18T14:52:28.398Z,92018.13
2023-05-18T14:55:01.016Z,92021.09
2023-05-18T14:57:33.269Z,92020.16
2023-05-18T15:00:06.798Z,92022.56
2023-05-18T15:02:39.108Z,92024.59
2023-05-18T15:05:11.453Z,92023.94
2023-05-18T15:07:44.399Z,92019.03
2023-05-18T15:10:16.626Z,92026.38
2023-05-18T15:12:48.860Z,92023.63
2023-05-18T15:15:21.052Z,92025.69
2023-05-18T15:17:53.662Z,92022.00
2023-05-18T15:20:26.237Z,92021.91
2023-05-18T15:22:59.810Z,92017.47
2023-05-18T15:25:32.106Z,92019.97
2023-05-18T15:28:04.388Z,92020.94
2023-05-18T15:30:36.666Z,92022.00
2023-05-18T15:33:08.956Z,92006.63
2023-05-18T15:35:41.201Z,92018.47
2023-05-18T15:38:14.158Z,92024.25
2023-05-18T15:40:47.211Z,92022.09
2023-05-18T15:43:20.703Z,92022.19
2023-05-18T15:45:53.029Z,92027.03
2023-05-18T15:48:25.437Z,92020.19
2023-05-18T15:50:57.701Z,92025.59
2023-05-18T15:53:30.573Z,92016.69
2023-05-18T15:56:02.818Z,92022.97
2023-05-18T15:58:35.028Z,92027.72
2023-05-18T16:01:07.323Z,92037.66
2023-05-18T16:03:39.765Z,92047.78
2023-05-18T16:06:12.143Z,92055.63
2023-05-18T16:08:45.434Z,92054.66
2023-05-18T16:11:17.673Z,92067.13
2023-05-18T16:13:53.765Z,92072.03
2023-05-18T16:16:26.592Z,92078.78
2023-05-18T16:18:59.953Z,92072.69
2023-05-18T16:21:32.775Z,92063.16
2023-05-18T16:24:06.412Z,92064.31
2023-05-18T16:26:40.067Z,92051.00
2023-05-18T16:29:12.502Z,92047.41
2023-05-18T16:31:44.985Z,92037.16
2023-05-18T16:34:17.219Z,92035.75
2023-05-18T16:36:49.505Z,92025.91
2023-05-18T16:39:22.442Z,92031.34
2023-05-18T16:41:54.670Z,92041.28
2023-05-18T16:44:26.841Z,92050.50
2023-05-18T16:46:59.095Z,92065.69
2023-05-18T16:49:31.358Z,92068.44
2023-05-18T16:52:04.499Z,92081.44
2023-05-18T16:54:37.357Z,92082.22
2023-05-18T16:57:12.329Z,92089.03
2023-05-18T16:59:44.517Z,92095.13
2023-05-18T17:02:17.266Z,92089.28
2023-05-18T17:04:49.931Z,92090.28
2023-05-18T17:07:22.633Z,92072.91
2023-05-18T17:09:55.533Z,92078.06
2023-05-18T17:12:28.629Z,92075.09
2023-05-18T17:15:01.919Z,92081.06
2023-05-18T17:17:34.282Z,92078.94
2023-05-18T17:20:08.303Z,92080.13
2023-05-18T17:22:40.604Z,92087.84
2023-05-18T17:25:13.578Z,92094.69
2023-05-18T17:27:45.785Z,92089.03
2023-05-18T17:30:17.990Z,92088.06
2023-05-18T17:32:50.376Z,92091.81
2023-05-18T17:35:22.806Z,92094.63
2023-05-18T17:37:57.922Z,92100.81
2023-05-18T17:40:30.958Z,92098.22
2023-05-18T17:43:03.326Z,92104.34
2023-05-18T17:45:35.555Z,92109.88
2023-05-18T17:48:07.883Z,92110.66
2023-05-18T17:50:41.715Z,92104.00
2023-05-18T17:53:14.024Z,92108.06
2023-05-18T17:55:47.198Z,92112.97
2023-05-18T17:58:19.485Z,92106.59
2023-05-18T18:00:51.950Z,92114.41
2023-05-18T18:03:24.429Z,92126.19
2023-05-18T18:05:56.978Z,92122.63
2023-05-18T18:08:29.654Z,92121.66
2023-05-18T18:11:03.137Z,92125.44
2023-05-18T18:13:35.632Z,92126.41
2023-05-18T18:16:08.224Z,92134.69
2023-05-18T18:18:40.865Z,92131.41
2023-05-18T18:21:13.322Z,92145.41
2023-05-18T18:23:45.911Z,92139.03
2023-05-18T18:26:21.364Z,92135.75
2023-05-18T18:28:53.722Z,92145.97
2023-05-18T18:31:26.115Z,92140.78
2023-05-18T18:33:58.511Z,92149.16
2023-05-18T18:36:31.227Z,92148.38
2023-05-18T18:39:05.140Z,92152.34
2023-05-18T18:41:38.198Z,92156.56
2023-05-18T18:44:10.638Z,92158.31
2023-05-18T18:46:43.189Z,92167.78
2023-05-18T18:49:15.542Z,92165.88
2023-05-18T18:51:47.997Z,92173.69
2023-05-18T18:54:22.802Z,92165.78
2023-05-18T18:56:55.816Z,92171.75
2023-05-18T18:59:28.135Z,92167.78
2023-05-18T19:02:00.500Z,92164.72
2023-05-18T19:04:33.010Z,92168.75
2023-05-18T19:07:05.466Z,92159.09
2023-05-18T19:09:37.845Z,92159.31
2023-05-18T19:12:10.868Z,92157.34
2023-05-18T19:14:43.165Z,92162.56
2023-05-18T19:17:15.852Z,92157.56
2023-05-18T19:19:48.406Z,92164.88
2023-05-18T19:22:20.822Z,92167.28
2023-05-18T19:24:53.220Z,92163.25
2023-05-18T19:27:26.239Z,92170.78
2023-05-18T19:30:00.859Z,92164.88
2023-05-18T19:32:34.788Z,92173.00
2023-05-18T19:35:07.337Z,92177.31
2023-05-18T19:37:39.772Z,92173.75
2023-05-18T19:40:12.179Z,92178.31
2023-05-18T19:42:45.249Z,92186.72
2023-05-18T19:45:17.705Z,92183.63
2023-05-18T19:47:50.109Z,92197.56
2023-05-18T19:50:22.563Z,92197.88
2023-05-18T19:52:54.954Z,92203.28
2023-05-18T19:55:27.395Z,92210.84
2023-05-18T19:58:00.448Z,92205.03
2023-05-18T20:00:33.280Z,92210.59
2023-05-18T20:03:05.913Z,92207.59
2023-05-18T20:05:38.344Z,92212.28
2023-05-18T20:08:11.932Z,92218.75
2023-05-18T20:10:44.266Z,92227.91
2023-05-18T20:13:17.304Z,92224.31
2023-05-18T20:15:49.926Z,92226.56
2023-05-18T20:18:23.088Z,92217.91
2023-05-18T20:20:55.626Z,92225.38
2023-05-18T20:23:27.971Z,92230.50
2023-05-18T20:26:00.349Z,92223.81
2023-05-18T20:28:33.344Z,92229.88
2023-05-18T20:31:05.713Z,92234.53
2023-05-18T20:33:38.832Z,92232.91
2023-05-18T20:36:11.254Z,92240.03
2023-05-18T20:38:43.626Z,92241.38
2023-05-18T20:41:17.043Z,92236.66
2023-05-18T20:43:50.483Z,92244.69
2023-05-18T20:46:24.130Z,92240.84
2023-05-18T20:48:56.701Z,92246.03
2023-05-18T20:51:30.586Z,92244.47
2023-05-18T20:54:03.181Z,92247.75
2023-05-18T20:56:35.858Z,92240.47
2023-05-18T20:59:11.848Z,92244.59
2023-05-18T21:01:44.215Z,92252.59
2023-05-18T21:04:17.944Z,92250.53
2023-05-18T21:06:51.949Z,92247.38
2023-05-18T21:09:24.925Z,92242.94
2023-05-18T21:11:57.345Z,92246.31
2023-05-18T21:14:30.415Z,92242.09
2023-05-18T21:17:02.721Z,92239.50
2023-05-18T21:19:35.116Z,92241.97
2023-05-18T21:22:07.561Z,92244.50
2023-05-18T21:24:40.006Z,92237.69
2023-05-18T21:27:12.477Z,92239.09
2023-05-18T21:29:45.518Z,92245.56
2023-05-18T21:32:17.926Z,92242.41
2023-05-18T21:34:50.413Z,92239.88
2023-05-18T21:37:22.784Z,92242.78
2023-05-18T21:39:55.126Z,92242.19
2023-05-18T21:42:27.525Z,92245.19
2023-05-18T21:45:01.084Z,92241.16
2023-05-18T21:47:33.522Z,92254.25
2023-05-18T21:50:07.206Z,92255.22
2023-05-18T21:52:39.725Z,92258.03
2023-05-18T21:55:12.068Z,92257.03
2023-05-18T21:57:44.490Z,92259.44
2023-05-18T22:00:18.177Z,92256.78
2023-05-18T22:02:50.624Z,92260.16
2023-05-18T22:05:23.007Z,92271.41
2023-05-18T22:07:55.613Z,92265.72
2023-05-18T22:10:29.916Z,92261.00
2023-05-18T22:13:02.677Z,92270.41
2023-05-18T22:15:36.564Z,92265.69
2023-05-18T22:18:10.033Z,92264.56
2023-05-18T22:20:42.456Z,92264.97
2023-05-18T22:23:14.937Z,92271.91
2023-05-18T22:25:47.376Z,92262.28
2023-05-18T22:28:20.945Z,92269.31
2023-05-18T22:30:54.056Z,92248.53
2023-05-18T22:33:28.115Z,92254.94
2023-05-18T22:36:01.005Z,92256.97
2023-05-18T22:38:33.446Z,92264.00
2023-05-18T22:41:05.941Z,92261.56
2023-05-18T22:43:38.308Z,92258.97
2023-05-18T22:46:11.916Z,92259.94
2023-05-18T22:48:44.354Z,92262.34
2023-05-18T22:51:18.045Z,92268.75
2023-05-18T22:53:50.623Z,92263.44
2023-05-18T22:56:22.982Z,92265.00
2023-05-18T22:58:55.453Z,92262.59
2023-05-18T23:01:28.585Z,92257.84
2023-05-18T23:04:01.093Z,92257.56
2023-05-18T23:06:33.860Z,92257.28
2023-05-18T23:09:06.497Z,92256.59
2023-05-18T23:11:39.048Z,92249.75
2023-05-18T23:14:12.145Z,92246.38
2023-05-18T23:16:46.094Z,92245.78
2023-05-18T23:19:19.136Z,92247.41
2023-05-18T23:21:51.692Z,92244.91
2023-05-18T23:24:24.085Z,92245.66
2023-05-18T23:26:57.678Z,92248.53
2023-05-18T23:29:30.159Z,92247.19
2023-05-18T23:32:03.491Z,92243.94
2023-05-18T23:34:36.935Z,92238.75
2023-05-18T23:37:10.647Z,92243.09
2023-05-18T23:39:46.019Z,92243.56
2023-05-18T23:42:19.379Z,92244.06
2023-05-18T23:44:52.684Z,92237.00
2023-05-18T23:47:26.288Z,92238.16
2023-05-18T23:49:59.176Z,92243.00
2023-05-18T23:52:33.266Z,92233.63
2023-05-18T23:55:09.956Z,92232.38
2023-05-18T23:57:42.971Z,92241.75
